Time;durP1;ratioP1;P1;durP2;ratioP2;P2;SDS_P1;SDS_P2;PMS_P1;PMS_P2;Temp;Humidity;BMP_temperature;BMP_pressure;BME280_temperature;BME280_humidity;BME280_pressure;Samples;Min_cycle;Max_cycle;Signal;HPM_P1;HPM_P2
2022/08/08 00:00:13;;;;;;;5.00;4.80;;;;;;;15.65;75.41;102102.88;6127104;23;20148;-76
2022/08/08 00:03:24;;;;;;;5.25;5.05;;;;;;;15.64;76.11;102106.50;6104866;23;20462;-77
2022/08/08 00:06:15;;;;;;;5.32;5.13;;;;;;;15.59;75.65;102104.06;6070911;23;20017;-76
2022/08/08 00:09:07;;;;;;;5.60;5.30;;;;;;;15.51;76.10;102104.44;6132725;23;20013;-76
2022/08/08 00:11:43;;;;;;;5.28;5.07;;;;;;;15.45;76.08;102101.25;6109016;23;20142;-74
2022/08/08 00:15:00;;;;;;;5.13;4.93;;;;;;;14.95;76.75;102031.44;6076956;23;20068;-75
2022/08/08 00:17:41;;;;;;;5.00;4.80;;;;;;;15.26;77.78;102077.53;6127906;23;20231;-76
2022/08/08 00:20:37;;;;;;;5.18;4.97;;;;;;;15.35;77.46;102087.63;6081393;23;20094;-74
2022/08/08 00:23:25;;;;;;;5.40;5.10;;;;;;;15.29;77.74;102085.28;6141497;23;20463;-75
2022/08/08 00:26:10;;;;;;;4.85;4.65;;;;;;;14.09;77.21;101906.13;6076789;23;20051;-75
2022/08/08 00:28:43;;;;;;;5.10;4.90;;;;;;;15.25;78.00;102078.44;6129187;23;20860;-75
2022/08/08 00:31:21;;;;;;;5.33;5.13;;;;;;;15.22;78.55;102083.91;6092743;23;20024;-75
2022/08/08 00:35:13;;;;;;;5.35;4.95;;;;;;;15.15;79.16;102080.69;6141290;23;20017;-75
2022/08/08 00:38:07;;;;;;;5.93;5.63;;;;;;;15.12;79.14;102079.06;6085388;23;20021;-76
2022/08/08 00:41:19;;;;;;;4.75;4.55;;;;;;;14.22;78.98;101951.28;6149208;23;20005;-76
2022/08/08 00:44:58;;;;;;;5.00;4.80;;;;;;;15.08;79.79;102085.44;6116398;23;20392;-76
2022/08/08 00:47:52;;;;;;;4.90;4.70;;;;;;;15.02;79.41;102087.53;6026484;23;20014;-75
2022/08/08 00:51:09;;;;;;;4.90;4.70;;;;;;;14.96;79.62;102083.38;6113018;23;20100;-76
2022/08/08 00:53:54;;;;;;;5.95;5.65;;;;;;;14.88;79.34;102081.09;6079059;23;20033;-75
2022/08/08 00:57:18;;;;;;;5.55;5.35;;;;;;;14.72;80.39;102072.22;6134618;23;20056;-75
2022/08/08 01:00:00;;;;;;;5.57;5.38;;;;;;;14.70;81.80;102080.19;6106147;23;20033;-75
2022/08/08 01:02:39;;;;;;;4.70;4.50;;;;;;;14.64;82.15;102087.56;6044421;23;20035;-75
2022/08/08 01:06:08;;;;;;;4.90;4.70;;;;;;;14.53;84.77;102088.91;6104804;23;20009;-75
2022/08/08 01:09:01;;;;;;;5.60;5.30;;;;;;;13.87;85.02;101993.34;6137427;23;20013;-75
2022/08/08 01:12:10;;;;;;;6.18;5.88;;;;;;;14.55;84.53;102102.00;6082160;23;20044;-75
2022/08/08 01:14:49;;;;;;;4.95;4.75;;;;;;;14.53;85.41;102093.31;6095234;23;20089;-76
2022/08/08 01:17:41;;;;;;;4.93;4.72;;;;;;;14.49;85.23;102095.25;6115497;23;20021;-75
2022/08/08 01:20:38;;;;;;;5.00;4.80;;;;;;;14.48;85.28;102095.31;6145697;23;20052;-76
2022/08/08 01:23:18;;;;;;;4.90;4.70;;;;;;;14.46;84.45;102086.59;6084824;23;20085;-76
2022/08/08 01:26:24;;;;;;;5.20;5.00;;;;;;;14.42;85.38;102091.16;6146225;23;20033;-75
2022/08/08 01:29:19;;;;;;;5.60;5.32;;;;;;;14.12;85.31;102062.59;6103063;23;20874;-75
2022/08/08 01:32:17;;;;;;;6.05;5.75;;;;;;;14.38;85.20;102079.03;6113016;23;20023;-76
2022/08/08 01:35:14;;;;;;;6.13;5.82;;;;;;;14.36;85.77;102088.81;6140202;23;20569;-75
2022/08/08 01:38:00;;;;;;;6.00;5.70;;;;;;;14.34;85.79;102073.03;6061521;23;20030;-75
2022/08/08 01:41:02;;;;;;;4.75;4.55;;;;;;;14.30;86.04;102079.38;6132697;23;20033;-74
2022/08/08 01:43:42;;;;;;;4.90;4.70;;;;;;;14.29;85.63;102077.69;6080295;23;20021;-75
2022/08/08 01:46:37;;;;;;;5.35;5.15;;;;;;;14.25;85.89;102075.22;6090139;23;20022;-74
2022/08/08 01:49:10;;;;;;;4.90;4.70;;;;;;;14.16;87.16;102066.81;6120843;23;20047;-75
2022/08/08 01:52:27;;;;;;;5.70;5.50;;;;;;;13.02;86.82;101891.59;6141795;23;20092;-75
2022/08/08 01:55:17;;;;;;;4.90;4.70;;;;;;;14.06;88.20;102069.94;6112523;23;20025;-75
2022/08/08 01:58:25;;;;;;;5.25;4.95;;;;;;;14.08;88.06;102068.94;6128704;23;20279;-75
2022/08/08 02:01:22;;;;;;;4.80;4.60;;;;;;;13.79;88.79;102040.34;6080710;23;20021;-75
2022/08/08 02:04:11;;;;;;;5.57;5.38;;;;;;;14.01;88.54;102069.28;6134557;23;20013;-74
2022/08/08 02:07:15;;;;;;;5.75;5.47;;;;;;;13.99;89.62;102069.34;6098669;23;20024;-74
2022/08/08 02:10:38;;;;;;;6.03;5.72;;;;;;;13.95;89.48;102070.41;6080276;23;20034;-74
2022/08/08 02:13:56;;;;;;;4.72;4.53;;;;;;;13.43;89.51;101994.44;6072444;23;20049;-74
2022/08/08 02:16:41;;;;;;;5.30;5.00;;;;;;;13.87;91.26;102073.41;5997987;23;20062;-75
2022/08/08 02:19:23;;;;;;;5.15;4.90;;;;;;;13.82;91.92;102075.38;6108130;23;20080;-76
2022/08/08 02:22:32;;;;;;;4.75;4.55;;;;;;;13.35;92.32;102007.09;6085995;23;20021;-75
2022/08/08 02:25:24;;;;;;;4.80;4.60;;;;;;;12.75;92.76;101899.75;6138708;23;20013;-76
2022/08/08 02:28:16;;;;;;;5.05;4.78;;;;;;;13.73;92.56;102075.75;6103047;23;20083;-76
2022/08/08 02:31:03;;;;;;;5.65;5.45;;;;;;;13.55;91.83;102045.75;6077301;23;20132;-75
2022/08/08 02:34:07;;;;;;;6.43;6.13;;;;;;;13.69;93.10;102069.78;6150259;23;20022;-75
2022/08/08 02:37:20;;;;;;;6.07;5.78;;;;;;;13.65;93.76;102072.59;6117355;23;20076;-75
2022/08/08 02:40:24;;;;;;;4.85;4.65;;;;;;;13.55;93.44;102064.22;6070093;23;20050;-75
2022/08/08 02:43:22;;;;;;;5.85;5.55;;;;;;;13.57;93.70;102065.03;6125924;23;20017;-74
2022/08/08 02:46:18;;;;;;;4.78;4.57;;;;;;;13.53;93.52;102066.06;6077849;23;20510;-75
2022/08/08 02:49:10;;;;;;;5.95;5.65;;;;;;;13.51;94.37;102062.63;6137248;23;20384;-76
2022/08/08 02:52:03;;;;;;;5.70;5.50;;;;;;;13.00;94.59;101980.38;6103328;23;20025;-75
2022/08/08 02:55:01;;;;;;;6.03;5.72;;;;;;;13.48;94.44;102062.78;6135637;23;20017;-75
2022/08/08 02:57:43;;;;;;;5.20;5.00;;;;;;;12.97;93.80;102001.63;6103804;23;20029;-76
2022/08/08 03:00:16;;;;;;;4.80;4.60;;;;;;;13.35;94.08;102070.38;6147999;23;20051;-76
2022/08/08 03:03:15;;;;;;;4.75;4.55;;;;;;;13.12;95.29;102045.75;6084826;23;20661;-75
2022/08/08 03:06:40;;;;;;;4.72;4.53;;;;;;;13.20;95.21;102066.53;6115405;23;20655;-75
2022/08/08 03:09:21;;;;;;;4.75;4.55;;;;;;;13.09;97.00;102064.34;6102345;23;20022;-75
2022/08/08 03:12:35;;;;;;;4.82;4.63;;;;;;;12.63;98.58;102012.63;6097442;18;20040;-75
2022/08/08 03:16:01;;;;;;;4.90;4.65;;;;;;;13.03;99.65;102064.59;6089449;23;20534;-75
2022/08/08 03:18:51;;;;;;;4.78;4.57;;;;;;;12.81;100.00;102034.75;6049541;23;20009;-75
2022/08/08 03:21:18;;;;;;;4.75;4.55;;;;;;;12.96;100.00;102063.97;6133502;18;20013;-75
2022/08/08 03:23:52;;;;;;;5.57;5.30;;;;;;;12.88;100.00;102045.00;6056529;23;20014;-76
2022/08/08 03:26:38;;;;;;;4.70;4.50;;;;;;;12.92;100.00;102062.38;6068709;23;20030;-74
2022/08/08 03:29:14;;;;;;;4.60;4.35;;;;;;;12.30;100.00;101963.88;6062711;23;20132;-76
2022/08/08 03:34:35;;;;;;;5.03;4.72;;;;;;;12.53;100.00;102017.44;6097580;23;20037;-77
2022/08/08 03:37:09;;;;;;;5.05;4.80;;;;;;;10.70;100.00;101717.50;6066712;23;20342;-75
2022/08/08 03:40:00;;;;;;;5.00;4.80;;;;;;;11.69;100.00;101889.94;6090945;23;20018;-75
2022/08/08 03:42:29;;;;;;;4.70;4.50;;;;;;;12.29;100.00;101998.19;6088373;23;20030;-74
2022/08/08 03:44:56;;;;;;;5.20;4.90;;;;;;;12.06;100.00;101970.09;6054506;23;20030;-76
2022/08/08 03:47:25;;;;;;;4.70;4.50;;;;;;;12.66;100.00;102067.84;6101539;23;20077;-76
2022/08/08 03:50:17;;;;;;;4.57;4.38;;;;;;;12.35;100.00;102022.50;6063078;23;20055;-76
2022/08/08 03:52:46;;;;;;;5.63;5.43;;;;;;;12.66;100.00;102086.28;6091982;23;20014;-76
2022/08/08 03:55:17;;;;;;;5.40;5.10;;;;;;;12.22;100.00;102007.22;6059012;23;20082;-76
2022/08/08 03:58:04;;;;;;;5.05;4.85;;;;;;;12.62;100.00;102080.25;6090961;23;20010;-76
2022/08/08 04:00:52;;;;;;;5.90;5.60;;;;;;;12.03;100.00;101983.34;6053015;23;20010;-75
2022/08/08 04:03:38;;;;;;;5.72;5.43;;;;;;;12.47;100.00;102046.59;6090013;23;20658;-76
2022/08/08 04:06:24;;;;;;;4.63;4.43;;;;;;;12.46;100.00;102058.94;6058694;23;20076;-75
2022/08/08 04:08:56;;;;;;;5.50;5.10;;;;;;;12.38;100.00;102072.38;6070342;23;20010;-76
2022/08/08 04:11:23;;;;;;;4.68;4.43;;;;;;;12.19;100.00;102010.84;6066315;23;20671;-76
2022/08/08 04:13:53;;;;;;;6.22;5.93;;;;;;;12.49;100.00;102060.59;6089509;23;20353;-75
2022/08/08 04:16:42;;;;;;;6.43;6.13;;;;;;;12.73;100.00;102093.88;6058333;23;20080;-75
2022/08/08 04:19:14;;;;;;;4.80;4.60;;;;;;;12.40;100.00;102006.50;6092825;23;20050;-75
2022/08/08 04:21:50;;;;;;;6.22;5.93;;;;;;;13.16;100.00;102092.16;6062981;23;20029;-75
2022/08/08 04:24:17;;;;;;;4.72;4.53;;;;;;;12.24;100.00;101879.91;6098312;23;20112;-75
2022/08/08 04:26:56;;;;;;;4.80;4.60;;;;;;;13.68;99.29;102062.78;6077965;23;20051;-74
2022/08/08 04:29:27;;;;;;;4.80;4.60;;;;;;;13.92;96.10;102045.00;6090654;23;20101;-74
2022/08/08 04:32:06;;;;;;;4.90;4.70;;;;;;;14.45;93.37;102051.41;6165990;18;20024;-74
2022/08/08 04:34:42;;;;;;;4.93;4.72;;;;;;;14.93;90.14;102044.75;6183516;23;20347;-74
2022/08/08 04:37:22;;;;;;;4.80;4.60;;;;;;;15.35;87.55;102067.34;6178096;23;20088;-74
2022/08/08 04:39:58;;;;;;;4.90;4.70;;;;;;;15.78;85.86;102044.94;6205356;23;20197;-75
2022/08/08 04:42:34;;;;;;;5.10;4.90;;;;;;;15.64;83.18;101982.09;6176868;23;20107;-75
2022/08/08 04:45:04;;;;;;;5.13;4.93;;;;;;;16.24;80.83;102026.56;6169677;23;20017;-75
2022/08/08 04:47:30;;;;;;;5.00;4.80;;;;;;;16.49;79.54;102011.00;6182704;23;20020;-75
2022/08/08 04:50:09;;;;;;;5.30;5.05;;;;;;;15.95;77.85;101926.56;6153176;23;20017;-76
2022/08/08 04:52:50;;;;;;;6.00;5.70;;;;;;;16.03;77.81;101999.47;6171966;23;20024;-75
2022/08/08 04:55:31;;;;;;;5.13;4.93;;;;;;;16.33;78.71;101959.81;6170553;23;20111;-74
2022/08/08 04:58:18;;;;;;;5.07;4.88;;;;;;;16.28;77.32;101938.91;6175510;23;20028;-75
2022/08/08 05:01:08;;;;;;;6.72;6.32;;;;;;;16.18;78.18;101963.31;6163809;23;20083;-74
2022/08/08 05:03:36;;;;;;;5.60;5.32;;;;;;;17.13;75.73;102014.44;6163129;23;20601;-73
2022/08/08 05:06:31;;;;;;;5.28;5.07;;;;;;;17.66;73.58;102012.19;6168815;23;20008;-74
2022/08/08 05:09:02;;;;;;;5.45;5.20;;;;;;;17.47;72.50;101975.28;6163121;23;20013;-75
2022/08/08 05:11:35;;;;;;;5.35;5.15;;;;;;;17.54;73.17;102029.69;6132095;23;20016;-75
2022/08/08 05:14:07;;;;;;;5.50;5.25;;;;;;;17.23;73.23;101963.50;6172263;23;20619;-75
2022/08/08 05:16:37;;;;;;;6.47;6.10;;;;;;;17.37;73.98;102074.97;6136941;23;20655;-75
2022/08/08 05:19:24;;;;;;;5.60;5.30;;;;;;;17.53;74.97;102035.09;6170666;23;20760;-75
2022/08/08 05:22:10;;;;;;;5.30;5.10;;;;;;;16.67;74.73;101923.44;6126106;23;20028;-76
2022/08/08 05:24:40;;;;;;;5.90;5.65;;;;;;;15.94;76.23;101847.25;6161024;23;20037;-74
2022/08/08 05:27:13;;;;;;;6.13;5.40;;;;;;;16.84;78.03;102055.03;6168274;23;20023;-74
2022/08/08 05:29:41;;;;;;;6.70;6.40;;;;;;;16.01;79.19;101948.38;6141536;23;20039;-74
2022/08/08 05:32:08;;;;;;;5.38;5.07;;;;;;;16.22;78.76;101952.50;6148837;23;20618;-74
2022/08/08 05:34:46;;;;;;;6.35;6.00;;;;;;;16.34;78.71;101946.50;6138790;23;20016;-75
2022/08/08 05:37:38;;;;;;;5.55;5.35;;;;;;;17.39;77.04;102033.25;6107169;23;20020;-75
2022/08/08 05:40:21;;;;;;;5.65;5.35;;;;;;;17.88;75.28;101997.59;6142209;23;20033;-75
2022/08/08 05:43:00;;;;;;;5.97;5.68;;;;;;;18.53;73.07;101997.84;6098571;23;20052;-74
2022/08/08 05:45:51;;;;;;;6.85;6.55;;;;;;;18.67;70.44;101911.00;6134399;23;20017;-74
2022/08/08 05:48:20;;;;;;;5.60;5.30;;;;;;;19.59;68.44;101976.59;6144373;23;20474;-74
2022/08/08 05:50:57;;;;;;;5.50;5.30;;;;;;;20.38;64.33;102000.34;6094235;23;20096;-75
2022/08/08 05:53:41;;;;;;;6.82;6.53;;;;;;;18.92;62.95;101669.03;6115023;23;20758;-75
2022/08/08 05:56:29;;;;;;;5.80;5.50;;;;;;;21.18;62.17;101971.22;6092471;23;20538;-75
2022/08/08 05:59:04;;;;;;;6.15;5.85;;;;;;;21.56;59.87;101991.44;6131959;23;20070;-75
2022/08/08 06:01:45;;;;;;;6.75;6.45;;;;;;;20.67;61.03;101848.84;6062593;23;20545;-75
2022/08/08 06:04:28;;;;;;;6.15;5.85;;;;;;;22.08;60.01;101998.00;6125306;23;20493;-76
2022/08/08 06:06:56;;;;;;;6.43;6.13;;;;;;;21.98;57.93;101991.69;6114774;23;20021;-75
2022/08/08 06:09:31;;;;;;;6.10;5.80;;;;;;;21.51;58.55;101959.78;6093579;23;20025;-76
2022/08/08 06:12:19;;;;;;;5.97;5.68;;;;;;;21.05;59.46;101965.97;6137305;23;20706;-76
2022/08/08 06:15:00;;;;;;;6.20;5.90;;;;;;;20.03;61.29;101935.31;6120182;23;20078;-74
2022/08/08 06:17:31;;;;;;;6.32;5.85;;;;;;;19.85;62.67;101936.63;6091770;23;20041;-75
2022/08/08 06:20:17;;;;;;;6.43;6.10;;;;;;;20.20;62.12;102037.16;6102839;23;20009;-76
2022/08/08 06:22:46;;;;;;;7.00;6.70;;;;;;;19.01;62.51;101892.81;6139473;23;20013;-75
2022/08/08 06:25:16;;;;;;;6.43;6.03;;;;;;;19.33;63.48;101941.13;6137612;23;20001;-75
2022/08/08 06:27:49;;;;;;;6.68;6.30;;;;;;;19.99;63.54;102052.88;6135418;23;20029;-76
2022/08/08 06:30:19;;;;;;;6.20;5.82;;;;;;;19.29;62.29;102067.41;6138446;23;20162;-75
2022/08/08 06:32:57;;;;;;;6.70;6.40;;;;;;;18.99;64.71;102025.06;6119729;23;20435;-74
2022/08/08 06:35:29;;;;;;;6.20;5.90;;;;;;;18.93;65.68;102015.69;6129381;23;20025;-75
2022/08/08 06:38:20;;;;;;;5.72;5.43;;;;;;;18.66;64.89;102011.22;6141334;23;20551;-75
2022/08/08 06:40:59;;;;;;;6.80;6.40;;;;;;;18.25;66.06;101935.00;6116329;23;20002;-75
2022/08/08 06:43:32;;;;;;;6.55;6.13;;;;;;;19.00;63.70;102050.72;6147392;23;20450;-74
2022/08/08 06:46:03;;;;;;;6.25;5.95;;;;;;;19.21;64.25;102065.25;6136476;23;20009;-75
2022/08/08 06:48:29;;;;;;;6.22;5.93;;;;;;;19.29;64.56;102062.09;6142935;23;20021;-75
2022/08/08 06:50:59;;;;;;;6.30;6.00;;;;;;;19.56;64.55;102062.00;6104057;23;20014;-75
2022/08/08 06:53:36;;;;;;;6.38;5.82;;;;;;;19.22;64.29;101978.28;6116961;23;20031;-76
2022/08/08 06:56:07;;;;;;;5.75;5.45;;;;;;;19.68;63.84;102033.66;6111736;23;20238;-75
2022/08/08 06:58:42;;;;;;;7.80;7.30;;;;;;;19.74;63.78;102022.63;6136364;23;20027;-75
2022/08/08 07:01:14;;;;;;;5.82;5.53;;;;;;;19.79;63.69;102040.97;6127590;23;20021;-75
2022/08/08 07:04:30;;;;;;;6.22;5.88;;;;;;;20.12;63.05;102065.22;6110423;23;20089;-75
2022/08/08 07:07:09;;;;;;;5.97;5.68;;;;;;;19.89;62.55;102016.22;6133988;23;20017;-76
2022/08/08 07:09:53;;;;;;;5.78;5.47;;;;;;;19.70;62.26;102015.78;6106809;23;20033;-75
2022/08/08 07:12:37;;;;;;;6.38;5.97;;;;;;;18.98;61.87;101912.47;6139830;23;20021;-74
2022/08/08 07:15:06;;;;;;;5.80;5.50;;;;;;;19.52;61.66;102010.78;6106883;23;20015;-76
2022/08/08 07:18:03;;;;;;;6.00;5.70;;;;;;;19.58;62.34;101990.84;6143104;23;20027;-75
2022/08/08 07:20:54;;;;;;;6.85;6.55;;;;;;;19.71;60.93;102006.88;6134929;23;20500;-76
2022/08/08 07:23:30;;;;;;;5.63;5.32;;;;;;;20.11;62.09;102084.00;6145918;23;20104;-76
2022/08/08 07:26:20;;;;;;;5.40;5.20;;;;;;;20.31;61.66;102062.09;6152248;23;20016;-77
2022/08/08 07:28:57;;;;;;;5.78;5.47;;;;;;;19.81;62.01;102028.38;6137684;23;20463;-75
2022/08/08 07:31:30;;;;;;;5.75;5.45;;;;;;;20.44;61.78;102080.72;6121146;23;20044;-78
2022/08/08 07:34:03;;;;;;;5.50;5.20;;;;;;;20.51;61.35;102087.34;6151671;23;20029;-76
2022/08/08 07:36:36;;;;;;;5.88;5.57;;;;;;;19.56;60.80;101949.31;6135871;23;20374;-72
2022/08/08 07:39:18;;;;;;;5.90;5.60;;;;;;;20.29;61.24;102088.03;6143558;23;20005;-75
2022/08/08 07:41:59;;;;;;;6.38;6.07;;;;;;;20.06;60.38;102012.34;6144168;23;20024;-76
2022/08/08 07:44:30;;;;;;;5.80;5.50;;;;;;;20.03;59.58;102001.06;6138521;23;20032;-75
2022/08/08 07:47:06;;;;;;;5.70;5.40;;;;;;;20.43;58.79;102043.53;6144274;23;20786;-77
2022/08/08 07:49:33;;;;;;;5.60;5.30;;;;;;;19.98;57.70;102019.19;6146148;23;20055;-75
2022/08/08 07:52:02;;;;;;;6.40;5.97;;;;;;;20.17;59.51;102096.91;6138079;23;20017;-76
2022/08/08 07:54:55;;;;;;;5.90;5.60;;;;;;;20.36;60.00;102095.56;6146074;23;20040;-76
2022/08/08 07:57:31;;;;;;;5.63;5.32;;;;;;;20.55;60.22;102095.97;6122494;23;20029;-76
2022/08/08 08:00:05;;;;;;;5.60;5.32;;;;;;;20.74;57.82;102092.84;6113499;23;22230;-76
2022/08/08 08:02:54;;;;;;;7.80;7.40;;;;;;;20.09;57.08;101936.69;6129643;23;20029;-77
2022/08/08 08:05:25;;;;;;;5.95;5.65;;;;;;;21.02;56.45;102046.28;6143606;23;20021;-75
2022/08/08 08:08:14;;;;;;;6.05;5.72;;;;;;;21.17;57.17;102089.66;6137439;23;20077;-76
2022/08/08 08:10:48;;;;;;;7.38;7.03;;;;;;;21.43;56.68;102079.72;6135960;23;20020;-75
2022/08/08 08:13:32;;;;;;;8.93;8.43;;;;;;;21.11;56.90;102087.47;6140025;23;20028;-75
2022/08/08 08:16:25;;;;;;;5.80;5.50;;;;;;;20.95;56.53;102094.88;6132280;23;20016;-75
2022/08/08 08:18:59;;;;;;;6.93;6.57;;;;;;;20.92;56.57;102054.13;6142343;23;20306;-75
2022/08/08 08:21:34;;;;;;;6.63;6.18;;;;;;;21.15;55.99;102053.34;6147936;23;20111;-75
2022/08/08 08:24:20;;;;;;;6.20;5.80;;;;;;;20.86;55.06;101998.53;6139313;23;20627;-76
2022/08/08 08:26:57;;;;;;;6.07;5.68;;;;;;;21.31;55.04;102070.78;6138334;23;20013;-76
2022/08/08 08:29:25;;;;;;;5.65;5.38;;;;;;;21.62;53.55;102059.59;6118890;23;20431;-75
2022/08/08 08:31:54;;;;;;;6.00;5.70;;;;;;;21.73;53.48;102064.97;6111749;23;20034;-75
2022/08/08 08:34:25;;;;;;;6.50;6.10;;;;;;;21.63;53.63;102008.72;6142580;23;20040;-75
2022/08/08 08:37:02;;;;;;;6.07;5.72;;;;;;;21.85;52.55;101989.16;6110381;23;20016;-75
2022/08/08 08:39:37;;;;;;;5.85;5.55;;;;;;;22.20;51.26;102054.16;6138378;23;20074;-75
2022/08/08 08:42:25;;;;;;;6.18;5.78;;;;;;;21.51;51.41;101919.72;6139148;23;20025;-76
2022/08/08 08:45:05;;;;;;;6.00;5.70;;;;;;;21.75;49.95;101993.53;6138213;23;20024;-75
2022/08/08 08:47:53;;;;;;;7.07;6.68;;;;;;;22.24;51.72;102055.63;6107142;23;20013;-75
2022/08/08 08:50:27;;;;;;;5.70;5.40;;;;;;;22.16;49.86;101994.72;6164392;23;20031;-75
2022/08/08 08:53:05;;;;;;;5.88;5.47;;;;;;;22.67;49.13;102086.91;6129267;23;20036;-75
2022/08/08 08:55:56;;;;;;;6.07;5.78;;;;;;;22.59;49.51;102084.91;6141091;23;20117;-75
2022/08/08 08:58:38;;;;;;;5.68;5.38;;;;;;;22.85;49.88;102080.09;6144998;23;20037;-76
2022/08/08 09:01:13;;;;;;;6.05;5.55;;;;;;;22.69;48.71;102021.63;6110067;23;20627;-75
2022/08/08 09:03:46;;;;;;;6.80;6.50;;;;;;;22.97;47.19;101997.88;6141729;23;20355;-75
2022/08/08 09:06:20;;;;;;;5.90;5.57;;;;;;;22.99;46.67;102022.72;6141784;23;20041;-74
2022/08/08 09:09:10;;;;;;;6.15;5.85;;;;;;;23.31;46.14;102067.34;6131086;23;20186;-74
2022/08/08 09:11:59;;;;;;;6.03;5.72;;;;;;;23.29;48.18;102026.47;6137763;23;20021;-75
2022/08/08 09:14:33;;;;;;;6.13;5.82;;;;;;;23.28;46.57;102035.50;6130678;23;20088;-73
2022/08/08 09:17:00;;;;;;;6.00;5.70;;;;;;;23.26;45.83;102006.16;6141795;23;20044;-72
2022/08/08 09:19:37;;;;;;;7.22;6.85;;;;;;;23.45;45.01;102072.41;6139982;23;20017;-76
2022/08/08 09:22:24;;;;;;;6.32;5.95;;;;;;;22.89;45.45;102022.63;6127914;23;20517;-76
2022/08/08 09:24:54;;;;;;;7.35;6.80;;;;;;;23.63;46.16;102074.47;6126776;23;20041;-77
2022/08/08 09:27:24;;;;;;;6.47;6.18;;;;;;;23.86;44.75;102059.97;6134298;23;20028;-78
2022/08/08 09:30:13;;;;;;;5.93;5.63;;;;;;;23.64;44.66;102052.91;6150892;23;20020;-74
2022/08/08 09:32:48;;;;;;;6.95;6.65;;;;;;;23.94;45.37;102072.72;6139690;23;20395;-73
2022/08/08 09:35:37;;;;;;;6.13;5.82;;;;;;;23.35;43.85;102006.34;6138640;23;20033;-73
2022/08/08 09:38:28;;;;;;;6.40;6.10;;;;;;;23.89;43.94;102064.22;6140901;23;20021;-73
2022/08/08 09:41:05;;;;;;;6.40;6.00;;;;;;;24.18;44.61;102063.50;6135865;23;20589;-74
2022/08/08 09:43:46;;;;;;;5.75;5.45;;;;;;;23.88;43.52;101988.28;6140690;23;20450;-73
2022/08/08 09:46:37;;;;;;;5.90;5.60;;;;;;;23.42;42.91;101964.66;6117732;23;20021;-76
2022/08/08 09:49:11;;;;;;;5.88;5.57;;;;;;;24.00;43.68;102048.03;6142540;23;20017;-75
2022/08/08 09:51:58;;;;;;;5.80;5.50;;;;;;;23.88;42.67;101976.72;6086412;23;20105;-73
2022/08/08 09:54:42;;;;;;;6.18;5.88;;;;;;;24.51;42.53;102061.50;6144565;23;20092;-70
2022/08/08 09:57:10;;;;;;;5.82;5.53;;;;;;;24.66;43.05;102026.06;6119741;23;20032;-73
2022/08/08 09:59:46;;;;;;;7.18;6.78;;;;;;;25.00;42.49;102052.50;6103217;23;20020;-71
2022/08/08 10:02:38;;;;;;;5.90;5.60;;;;;;;25.12;41.86;102060.41;6148894;23;20643;-72
2022/08/08 10:05:17;;;;;;;6.00;5.60;;;;;;;24.96;41.55;102050.25;6125204;23;20415;-70
2022/08/08 10:07:50;;;;;;;6.72;6.43;;;;;;;25.05;41.31;102058.28;6135172;23;20449;-70
2022/08/08 10:10:26;;;;;;;5.90;5.50;;;;;;;24.57;41.72;102048.34;6142941;23;20052;-71
2022/08/08 10:12:58;;;;;;;5.72;5.43;;;;;;;24.85;41.17;102070.00;6100704;23;20100;-71
2022/08/08 10:15:44;;;;;;;7.20;6.80;;;;;;;25.19;41.46;102054.31;6077393;23;20401;-71
2022/08/08 10:18:38;;;;;;;6.45;6.05;;;;;;;25.23;40.71;102060.28;6110663;23;20045;-70
2022/08/08 10:21:07;;;;;;;5.40;5.20;;;;;;;24.84;40.02;102006.56;6126635;23;20013;-71
2022/08/08 10:24:01;;;;;;;6.50;6.00;;;;;;;24.53;40.95;102021.94;6139371;23;20777;-71
2022/08/08 10:26:31;;;;;;;5.72;5.43;;;;;;;24.86;41.34;102061.81;6158038;23;20032;-71
2022/08/08 10:29:30;;;;;;;6.63;6.07;;;;;;;24.48;40.39;101990.97;6139794;23;20061;-71
2022/08/08 10:35:15;;;;;;;5.90;5.60;;;;;;;24.74;39.91;101997.69;6108304;23;20025;-71
2022/08/08 10:38:04;;;;;;;6.10;5.80;;;;;;;24.66;40.89;102044.84;6135484;23;20048;-71
2022/08/08 10:40:41;;;;;;;6.47;6.15;;;;;;;24.79;40.49;102065.22;6122863;23;20025;-72
2022/08/08 10:43:08;;;;;;;5.97;5.68;;;;;;;24.87;39.75;102017.00;6127499;23;20494;-72
2022/08/08 10:45:45;;;;;;;6.47;5.88;;;;;;;24.93;40.00;102032.56;6139824;23;20096;-72
2022/08/08 10:48:35;;;;;;;5.78;5.47;;;;;;;24.96;40.41;101997.38;6142633;23;20009;-72
2022/08/08 10:51:23;;;;;;;6.07;5.78;;;;;;;24.67;40.50;102032.28;6125627;23;20387;-73
2022/08/08 10:53:54;;;;;;;5.53;5.32;;;;;;;24.82;42.13;102022.81;6139320;23;20038;-72
2022/08/08 10:56:25;;;;;;;6.38;6.07;;;;;;;25.12;40.22;102074.69;6107049;23;20027;-71
2022/08/08 10:59:06;;;;;;;5.93;5.63;;;;;;;25.28;40.15;102039.22;6112081;23;20013;-72
2022/08/08 11:01:40;;;;;;;5.97;5.57;;;;;;;25.84;39.89;102064.41;6131822;23;20025;-72
2022/08/08 11:04:10;;;;;;;6.07;5.78;;;;;;;26.02;39.31;102051.91;6114647;23;20025;-72
2022/08/08 11:06:38;;;;;;;7.15;6.78;;;;;;;25.68;38.28;102051.56;6135541;23;20025;-72
2022/08/08 11:09:13;;;;;;;6.32;5.93;;;;;;;25.17;38.57;102007.09;6146988;23;20029;-73
2022/08/08 11:11:46;;;;;;;7.05;6.65;;;;;;;25.08;38.74;102019.56;6110917;23;20013;-71
2022/08/08 11:14:33;;;;;;;6.00;5.70;;;;;;;25.43;39.28;101997.44;6133581;23;20019;-71
2022/08/08 11:17:01;;;;;;;6.03;5.72;;;;;;;25.61;38.45;102016.34;6136221;23;20033;-71
2022/08/08 11:19:32;;;;;;;5.88;5.57;;;;;;;25.34;38.26;102019.84;6138715;23;20020;-72
2022/08/08 11:22:01;;;;;;;6.28;5.97;;;;;;;25.50;38.54;102056.00;6122287;23;20188;-72
2022/08/08 11:24:33;;;;;;;8.05;7.45;;;;;;;25.39;38.53;101996.03;6136020;23;20013;-71
2022/08/08 11:27:02;;;;;;;5.90;5.60;;;;;;;25.64;38.20;102060.94;6139396;23;20628;-71
2022/08/08 11:29:47;;;;;;;7.30;6.90;;;;;;;25.05;38.43;101950.00;6093477;23;20018;-71
2022/08/08 11:32:42;;;;;;;6.43;6.03;;;;;;;25.91;38.19;102051.25;6127906;23;20494;-71
2022/08/08 11:35:13;;;;;;;5.93;5.63;;;;;;;25.83;38.02;102063.53;6123770;23;20516;-72
2022/08/08 11:38:00;;;;;;;6.50;6.10;;;;;;;26.14;38.57;102044.47;6093937;23;21020;-71
2022/08/08 11:40:48;;;;;;;6.75;6.45;;;;;;;26.55;38.30;102053.00;6140105;23;20020;-71
2022/08/08 11:43:19;;;;;;;5.95;5.65;;;;;;;25.73;37.38;102000.03;6127694;23;20042;-70
2022/08/08 11:45:51;;;;;;;7.23;6.93;;;;;;;25.86;37.26;102009.47;6136446;23;20090;-71
2022/08/08 11:48:38;;;;;;;6.47;6.18;;;;;;;25.69;38.69;101999.47;6131635;23;20031;-71
2022/08/08 11:51:09;;;;;;;6.03;5.70;;;;;;;25.42;37.90;102024.50;6121726;23;20023;-73
2022/08/08 11:53:56;;;;;;;6.85;6.55;;;;;;;25.53;37.05;102053.03;6137493;23;20622;-72
2022/08/08 11:56:33;;;;;;;5.75;5.45;;;;;;;25.78;37.23;102067.66;6134467;23;20530;-74
2022/08/08 11:59:07;;;;;;;5.97;5.68;;;;;;;25.34;37.38;101997.47;6139357;23;20021;-72
2022/08/08 12:01:36;;;;;;;5.90;5.60;;;;;;;25.48;37.25;101956.72;6129634;23;20025;-71
2022/08/08 12:04:04;;;;;;;6.13;5.82;;;;;;;26.08;37.00;102055.84;6131422;23;20021;-72
2022/08/08 12:06:32;;;;;;;5.90;5.60;;;;;;;25.73;37.33;102006.25;6114595;23;20493;-72
2022/08/08 12:09:07;;;;;;;6.18;5.88;;;;;;;26.16;37.15;102057.75;6102016;23;20028;-72
2022/08/08 12:11:40;;;;;;;5.88;5.57;;;;;;;26.10;37.72;102051.16;6140811;23;20122;-71
2022/08/08 12:14:07;;;;;;;6.10;5.80;;;;;;;25.74;37.36;102018.72;6126720;23;20034;-72
2022/08/08 12:16:51;;;;;;;6.38;6.07;;;;;;;26.06;37.49;102018.31;6113317;23;20729;-72
2022/08/08 12:19:20;;;;;;;6.03;5.72;;;;;;;26.70;37.76;102037.22;6135999;23;20020;-72
2022/08/08 12:22:07;;;;;;;5.93;5.63;;;;;;;26.64;35.89;102053.97;6132571;23;20016;-71
2022/08/08 12:24:48;;;;;;;6.63;6.25;;;;;;;26.83;37.30;102031.44;6118411;23;20092;-71
2022/08/08 12:27:22;;;;;;;6.03;5.72;;;;;;;27.14;36.69;102025.63;6128465;23;20025;-71
2022/08/08 12:29:57;;;;;;;6.95;6.65;;;;;;;27.06;35.97;102039.88;6104381;23;20006;-71
2022/08/08 12:32:24;;;;;;;6.20;5.90;;;;;;;26.96;37.06;102039.97;6120425;23;20021;-72
2022/08/08 12:34:57;;;;;;;7.25;6.88;;;;;;;26.79;36.08;102041.66;6117298;23;20013;-72
2022/08/08 12:37:32;;;;;;;6.03;5.72;;;;;;;26.53;35.83;102043.41;6143033;23;20016;-74
2022/08/08 12:40:20;;;;;;;6.65;6.25;;;;;;;26.03;35.90;102001.63;6142655;23;20028;-71